sensor_id;sensor_type;location;lat;lon;timestamp;temperature;humidity
39815;DHT22;25495;45.948;4.568;2022-12-29T00:02:12;9.00;99.90
39815;DHT22;25495;45.948;4.568;2022-12-29T00:04:37;8.90;99.90
39815;DHT22;25495;45.948;4.568;2022-12-29T00:07:03;8.90;99.90
39815;DHT22;25495;45.948;4.568;2022-12-29T00:09:32;9.00;99.90
39815;DHT22;25495;45.948;4.568;2022-12-29T00:11:58;8.90;99.90
39815;DHT22;25495;45.948;4.568;2022-12-29T00:14:24;8.90;99.90
39815;DHT22;25495;45.948;4.568;2022-12-29T00:17:08;8.90;99.90
39815;DHT22;25495;45.948;4.568;2022-12-29T00:19:34;9.00;99.90
39815;DHT22;25495;45.948;4.568;2022-12-29T00:22:18;9.00;99.90
39815;DHT22;25495;45.948;4.568;2022-12-29T00:25:03;9.00;99.90
39815;DHT22;25495;45.948;4.568;2022-12-29T00:27:34;9.00;99.90
39815;DHT22;25495;45.948;4.568;2022-12-29T00:30:19;9.00;99.90
39815;DHT22;25495;45.948;4.568;2022-12-29T00:33:14;8.90;99.90
39815;DHT22;25495;45.948;4.568;2022-12-29T00:38:40;8.90;99.90
39815;DHT22;25495;45.948;4.568;2022-12-29T00:41:27;9.00;99.90
39815;DHT22;25495;45.948;4.568;2022-12-29T00:44:12;9.00;99.90
39815;DHT22;25495;45.948;4.568;2022-12-29T00:46:38;9.10;99.90
39815;DHT22;25495;45.948;4.568;2022-12-29T00:49:04;9.10;99.90
39815;DHT22;25495;45.948;4.568;2022-12-29T00:51:48;9.10;99.90
39815;DHT22;25495;45.948;4.568;2022-12-29T00:54:14;9.20;99.90
39815;DHT22;25495;45.948;4.568;2022-12-29T00:56:40;9.20;99.90
39815;DHT22;25495;45.948;4.568;2022-12-29T00:59:07;9.20;99.90
39815;DHT22;25495;45.948;4.568;2022-12-29T01:01:33;9.20;99.90
39815;DHT22;25495;45.948;4.568;2022-12-29T01:03:58;9.30;99.90
39815;DHT22;25495;45.948;4.568;2022-12-29T01:06:24;9.30;99.90
39815;DHT22;25495;45.948;4.568;2022-12-29T01:08:50;9.20;99.90
39815;DHT22;25495;45.948;4.568;2022-12-29T01:11:36;9.30;99.90
39815;DHT22;25495;45.948;4.568;2022-12-29T01:14:02;9.40;99.90
39815;DHT22;25495;45.948;4.568;2022-12-29T01:16:27;9.40;99.90
39815;DHT22;25495;45.948;4.568;2022-12-29T01:18:53;9.40;99.90
39815;DHT22;25495;45.948;4.568;2022-12-29T01:21:19;9.20;99.90
39815;DHT22;25495;45.948;4.568;2022-12-29T01:23:44;9.10;99.90
39815;DHT22;25495;45.948;4.568;2022-12-29T01:26:10;9.20;99.90
39815;DHT22;25495;45.948;4.568;2022-12-29T01:28:36;9.20;99.90
39815;DHT22;25495;45.948;4.568;2022-12-29T01:31:04;9.20;99.90
39815;DHT22;25495;45.948;4.568;2022-12-29T01:33:30;9.00;99.90
39815;DHT22;25495;45.948;4.568;2022-12-29T01:35:59;8.90;99.90
39815;DHT22;25495;45.948;4.568;2022-12-29T01:38:25;9.20;99.90
39815;DHT22;25495;45.948;4.568;2022-12-29T01:40:50;9.30;99.90
39815;DHT22;25495;45.948;4.568;2022-12-29T01:43:16;9.20;99.90
39815;DHT22;25495;45.948;4.568;2022-12-29T01:45:45;9.40;99.90
39815;DHT22;25495;45.948;4.568;2022-12-29T01:48:13;9.40;99.90
39815;DHT22;25495;45.948;4.568;2022-12-29T01:50:40;9.50;99.90
39815;DHT22;25495;45.948;4.568;2022-12-29T01:53:10;9.40;99.90
39815;DHT22;25495;45.948;4.568;2022-12-29T01:55:40;9.40;99.90
39815;DHT22;25495;45.948;4.568;2022-12-29T01:58:08;9.40;99.90
39815;DHT22;25495;45.948;4.568;2022-12-29T02:00:35;9.30;99.90
39815;DHT22;25495;45.948;4.568;2022-12-29T02:03:01;9.40;99.90
39815;DHT22;25495;45.948;4.568;2022-12-29T02:05:38;9.40;99.90
39815;DHT22;25495;45.948;4.568;2022-12-29T02:08:04;9.50;99.90
39815;DHT22;25495;45.948;4.568;2022-12-29T02:10:31;9.70;99.90
39815;DHT22;25495;45.948;4.568;2022-12-29T02:12:57;9.70;99.90
39815;DHT22;25495;45.948;4.568;2022-12-29T02:15:30;9.70;99.90
39815;DHT22;25495;45.948;4.568;2022-12-29T02:18:15;9.80;99.90
39815;DHT22;25495;45.948;4.568;2022-12-29T02:28:28;9.60;99.90
39815;DHT22;25495;45.948;4.568;2022-12-29T02:31:20;9.70;99.90
39815;DHT22;25495;45.948;4.568;2022-12-29T02:36:20;10.00;99.90
39815;DHT22;25495;45.948;4.568;2022-12-29T02:41:29;9.80;99.90
39815;DHT22;25495;45.948;4.568;2022-12-29T02:46:26;9.70;99.90
39815;DHT22;25495;45.948;4.568;2022-12-29T02:48:56;9.70;99.90
39815;DHT22;25495;45.948;4.568;2022-12-29T02:52:06;9.60;99.90
39815;DHT22;25495;45.948;4.568;2022-12-29T02:54:11;9.60;99.90
39815;DHT22;25495;45.948;4.568;2022-12-29T02:56:55;9.60;99.90
39815;DHT22;25495;45.948;4.568;2022-12-29T02:59:21;9.70;99.90
39815;DHT22;25495;45.948;4.568;2022-12-29T03:12:42;9.50;99.90
39815;DHT22;25495;45.948;4.568;2022-12-29T03:15:34;9.50;99.90
39815;DHT22;25495;45.948;4.568;2022-12-29T03:18:23;9.60;99.90
39815;DHT22;25495;45.948;4.568;2022-12-29T03:21:01;9.50;99.90
39815;DHT22;25495;45.948;4.568;2022-12-29T03:23:27;9.60;99.90
39815;DHT22;25495;45.948;4.568;2022-12-29T03:25:55;9.70;99.90
39815;DHT22;25495;45.948;4.568;2022-12-29T03:28:24;9.70;99.90
39815;DHT22;25495;45.948;4.568;2022-12-29T03:30:52;9.70;99.90
39815;DHT22;25495;45.948;4.568;2022-12-29T03:33:21;9.60;99.90
39815;DHT22;25495;45.948;4.568;2022-12-29T03:35:48;9.50;99.90
39815;DHT22;25495;45.948;4.568;2022-12-29T03:38:25;9.60;99.90
39815;DHT22;25495;45.948;4.568;2022-12-29T03:40:55;9.60;99.90
39815;DHT22;25495;45.948;4.568;2022-12-29T03:43:21;9.70;99.90
39815;DHT22;25495;45.948;4.568;2022-12-29T03:45:47;9.70;99.90
39815;DHT22;25495;45.948;4.568;2022-12-29T03:48:13;9.70;99.90
39815;DHT22;25495;45.948;4.568;2022-12-29T03:50:38;9.70;99.90
39815;DHT22;25495;45.948;4.568;2022-12-29T03:53:04;9.60;99.90
39815;DHT22;25495;45.948;4.568;2022-12-29T03:55:29;9.60;99.90
39815;DHT22;25495;45.948;4.568;2022-12-29T03:57:55;9.50;99.90
39815;DHT22;25495;45.948;4.568;2022-12-29T04:00:20;9.50;99.90
39815;DHT22;25495;45.948;4.568;2022-12-29T04:02:46;9.40;99.90
39815;DHT22;25495;45.948;4.568;2022-12-29T04:05:12;9.30;99.90
39815;DHT22;25495;45.948;4.568;2022-12-29T04:07:37;9.40;99.90
39815;DHT22;25495;45.948;4.568;2022-12-29T04:10:03;9.40;99.90
39815;DHT22;25495;45.948;4.568;2022-12-29T04:12:28;9.40;99.90
39815;DHT22;25495;45.948;4.568;2022-12-29T04:14:54;9.40;99.90
39815;DHT22;25495;45.948;4.568;2022-12-29T04:17:20;9.30;99.90
39815;DHT22;25495;45.948;4.568;2022-12-29T04:19:45;9.40;99.90
39815;DHT22;25495;45.948;4.568;2022-12-29T04:22:11;9.50;99.90
39815;DHT22;25495;45.948;4.568;2022-12-29T04:24:37;9.20;99.90
39815;DHT22;25495;45.948;4.568;2022-12-29T04:27:02;9.20;99.90
39815;DHT22;25495;45.948;4.568;2022-12-29T04:29:28;9.40;99.90
39815;DHT22;25495;45.948;4.568;2022-12-29T04:31:54;9.40;99.90
39815;DHT22;25495;45.948;4.568;2022-12-29T04:34:19;9.30;99.90
39815;DHT22;25495;45.948;4.568;2022-12-29T04:36:45;9.20;99.90
39815;DHT22;25495;45.948;4.568;2022-12-29T04:39:10;9.30;99.90
39815;DHT22;25495;45.948;4.568;2022-12-29T04:41:36;9.30;99.90
39815;DHT22;25495;45.948;4.568;2022-12-29T04:44:01;9.40;99.90
39815;DHT22;25495;45.948;4.568;2022-12-29T04:46:27;9.40;99.90
39815;DHT22;25495;45.948;4.568;2022-12-29T04:48:53;9.40;99.90
39815;DHT22;25495;45.948;4.568;2022-12-29T04:51:18;9.40;99.90
39815;DHT22;25495;45.948;4.568;2022-12-29T04:53:44;9.50;99.90
39815;DHT22;25495;45.948;4.568;2022-12-29T04:56:09;9.50;99.90
39815;DHT22;25495;45.948;4.568;2022-12-29T04:58:35;9.60;99.90
39815;DHT22;25495;45.948;4.568;2022-12-29T05:01:01;9.60;99.90
39815;DHT22;25495;45.948;4.568;2022-12-29T05:03:27;9.60;99.90
39815;DHT22;25495;45.948;4.568;2022-12-29T05:05:53;9.60;99.90
39815;DHT22;25495;45.948;4.568;2022-12-29T05:08:18;9.50;99.90
39815;DHT22;25495;45.948;4.568;2022-12-29T05:10:45;9.40;99.90
39815;DHT22;25495;45.948;4.568;2022-12-29T05:13:11;9.30;99.90
39815;DHT22;25495;45.948;4.568;2022-12-29T05:15:36;9.30;99.90
39815;DHT22;25495;45.948;4.568;2022-12-29T05:18:02;9.10;99.90
39815;DHT22;25495;45.948;4.568;2022-12-29T05:20:27;9.00;99.90
39815;DHT22;25495;45.948;4.568;2022-12-29T05:22:53;9.00;99.90
39815;DHT22;25495;45.948;4.568;2022-12-29T05:25:19;9.00;99.90
39815;DHT22;25495;45.948;4.568;2022-12-29T05:27:44;9.10;99.90
39815;DHT22;25495;45.948;4.568;2022-12-29T05:30:10;9.10;99.90
39815;DHT22;25495;45.948;4.568;2022-12-29T05:32:36;9.20;99.90
39815;DHT22;25495;45.948;4.568;2022-12-29T05:35:01;9.10;99.90
39815;DHT22;25495;45.948;4.568;2022-12-29T05:37:27;9.20;99.90
39815;DHT22;25495;45.948;4.568;2022-12-29T05:39:52;9.30;99.90
39815;DHT22;25495;45.948;4.568;2022-12-29T05:42:18;9.50;99.90
39815;DHT22;25495;45.948;4.568;2022-12-29T05:44:43;9.50;99.90
39815;DHT22;25495;45.948;4.568;2022-12-29T05:47:09;9.60;99.90
39815;DHT22;25495;45.948;4.568;2022-12-29T05:49:35;9.70;99.90
39815;DHT22;25495;45.948;4.568;2022-12-29T05:52:00;9.70;99.90
39815;DHT22;25495;45.948;4.568;2022-12-29T05:54:26;9.60;99.90
39815;DHT22;25495;45.948;4.568;2022-12-29T05:56:51;9.80;99.90
39815;DHT22;25495;45.948;4.568;2022-12-29T05:59:17;9.90;99.90
39815;DHT22;25495;45.948;4.568;2022-12-29T06:01:42;10.10;99.90
39815;DHT22;25495;45.948;4.568;2022-12-29T06:04:08;10.00;99.90
39815;DHT22;25495;45.948;4.568;2022-12-29T06:06:33;10.00;99.90
39815;DHT22;25495;45.948;4.568;2022-12-29T06:08:59;10.00;99.90
39815;DHT22;25495;45.948;4.568;2022-12-29T06:11:25;10.00;99.90
39815;DHT22;25495;45.948;4.568;2022-12-29T06:13:50;9.90;99.90
39815;DHT22;25495;45.948;4.568;2022-12-29T06:16:16;9.80;99.90
39815;DHT22;25495;45.948;4.568;2022-12-29T06:18:41;9.80;99.90
39815;DHT22;25495;45.948;4.568;2022-12-29T06:21:07;9.70;99.90
39815;DHT22;25495;45.948;4.568;2022-12-29T06:23:33;9.70;99.90
39815;DHT22;25495;45.948;4.568;2022-12-29T06:25:59;9.60;99.90
39815;DHT22;25495;45.948;4.568;2022-12-29T06:28:24;9.50;99.90
39815;DHT22;25495;45.948;4.568;2022-12-29T06:30:50;9.60;99.90
39815;DHT22;25495;45.948;4.568;2022-12-29T06:33:15;9.60;99.90
39815;DHT22;25495;45.948;4.568;2022-12-29T06:35:42;9.60;99.90
39815;DHT22;25495;45.948;4.568;2022-12-29T06:38:08;9.50;99.90
39815;DHT22;25495;45.948;4.568;2022-12-29T06:40:33;9.40;99.90
39815;DHT22;25495;45.948;4.568;2022-12-29T06:42:59;9.30;99.90
39815;DHT22;25495;45.948;4.568;2022-12-29T06:45:24;9.30;99.90
39815;DHT22;25495;45.948;4.568;2022-12-29T06:47:50;9.50;99.90
39815;DHT22;25495;45.948;4.568;2022-12-29T06:50:15;9.60;99.90
39815;DHT22;25495;45.948;4.568;2022-12-29T06:52:41;10.10;99.90
39815;DHT22;25495;45.948;4.568;2022-12-29T06:55:07;10.20;99.90
39815;DHT22;25495;45.948;4.568;2022-12-29T06:57:32;10.10;99.90
39815;DHT22;25495;45.948;4.568;2022-12-29T06:59:58;10.00;99.90
39815;DHT22;25495;45.948;4.568;2022-12-29T07:02:24;9.80;99.90
39815;DHT22;25495;45.948;4.568;2022-12-29T07:04:52;9.80;99.90
39815;DHT22;25495;45.948;4.568;2022-12-29T07:07:18;9.70;99.90
39815;DHT22;25495;45.948;4.568;2022-12-29T07:09:44;9.70;99.90
39815;DHT22;25495;45.948;4.568;2022-12-29T07:12:10;9.80;99.90
39815;DHT22;25495;45.948;4.568;2022-12-29T07:14:35;9.80;99.90
39815;DHT22;25495;45.948;4.568;2022-12-29T07:17:01;9.90;99.90
39815;DHT22;25495;45.948;4.568;2022-12-29T07:19:28;9.80;99.90
39815;DHT22;25495;45.948;4.568;2022-12-29T07:21:54;9.70;99.90
39815;DHT22;25495;45.948;4.568;2022-12-29T07:24:19;9.70;99.90
39815;DHT22;25495;45.948;4.568;2022-12-29T07:26:45;9.80;99.90
39815;DHT22;25495;45.948;4.568;2022-12-29T07:29:11;9.80;99.90
39815;DHT22;25495;45.948;4.568;2022-12-29T07:31:36;9.80;99.90
39815;DHT22;25495;45.948;4.568;2022-12-29T07:34:02;9.90;99.90
39815;DHT22;25495;45.948;4.568;2022-12-29T07:36:27;9.90;99.90
39815;DHT22;25495;45.948;4.568;2022-12-29T07:38:53;10.10;99.90
39815;DHT22;25495;45.948;4.568;2022-12-29T07:41:19;10.10;99.90
39815;DHT22;25495;45.948;4.568;2022-12-29T07:43:47;10.10;99.90
39815;DHT22;25495;45.948;4.568;2022-12-29T07:46:14;10.10;99.90
39815;DHT22;25495;45.948;4.568;2022-12-29T07:48:39;10.10;99.90
39815;DHT22;25495;45.948;4.568;2022-12-29T07:51:05;10.10;99.90
39815;DHT22;25495;45.948;4.568;2022-12-29T07:53:31;10.00;99.90
39815;DHT22;25495;45.948;4.568;2022-12-29T07:55:57;10.10;99.90
39815;DHT22;25495;45.948;4.568;2022-12-29T07:58:23;10.10;99.90
39815;DHT22;25495;45.948;4.568;2022-12-29T08:00:52;10.20;99.90
39815;DHT22;25495;45.948;4.568;2022-12-29T08:03:18;10.10;99.90
39815;DHT22;25495;45.948;4.568;2022-12-29T08:05:43;10.10;99.90
39815;DHT22;25495;45.948;4.568;2022-12-29T08:08:09;10.20;99.90
39815;DHT22;25495;45.948;4.568;2022-12-29T08:10:35;10.20;99.90
39815;DHT22;25495;45.948;4.568;2022-12-29T08:13:00;10.20;99.90
39815;DHT22;25495;45.948;4.568;2022-12-29T08:15:26;10.10;99.90
39815;DHT22;25495;45.948;4.568;2022-12-29T08:17:51;10.10;99.90
39815;DHT22;25495;45.948;4.568;2022-12-29T08:20:17;10.00;99.90
39815;DHT22;25495;45.948;4.568;2022-12-29T08:22:42;9.90;99.90
39815;DHT22;25495;45.948;4.568;2022-12-29T08:25:08;10.00;99.90
39815;DHT22;25495;45.948;4.568;2022-12-29T08:27:33;10.30;99.90
39815;DHT22;25495;45.948;4.568;2022-12-29T08:29:59;10.20;99.90
39815;DHT22;25495;45.948;4.568;2022-12-29T08:32:26;10.30;99.90
39815;DHT22;25495;45.948;4.568;2022-12-29T08:34:53;10.30;99.90
39815;DHT22;25495;45.948;4.568;2022-12-29T08:37:19;10.50;99.90
39815;DHT22;25495;45.948;4.568;2022-12-29T08:39:45;10.50;99.90
39815;DHT22;25495;45.948;4.568;2022-12-29T08:42:10;10.40;99.90
39815;DHT22;25495;45.948;4.568;2022-12-29T08:44:36;10.60;99.90
39815;DHT22;25495;45.948;4.568;2022-12-29T08:47:01;10.70;99.90
39815;DHT22;25495;45.948;4.568;2022-12-29T08:49:27;10.60;99.90
39815;DHT22;25495;45.948;4.568;2022-12-29T08:51:53;10.60;99.90
39815;DHT22;25495;45.948;4.568;2022-12-29T08:54:18;10.70;99.90
39815;DHT22;25495;45.948;4.568;2022-12-29T08:56:44;10.60;99.90
39815;DHT22;25495;45.948;4.568;2022-12-29T08:59:10;10.60;99.90
39815;DHT22;25495;45.948;4.568;2022-12-29T09:01:35;10.70;99.90
39815;DHT22;25495;45.948;4.568;2022-12-29T09:04:01;10.60;99.90
39815;DHT22;25495;45.948;4.568;2022-12-29T09:06:27;10.50;99.90
39815;DHT22;25495;45.948;4.568;2022-12-29T09:08:53;10.50;99.90
39815;DHT22;25495;45.948;4.568;2022-12-29T09:11:20;10.40;99.90
39815;DHT22;25495;45.948;4.568;2022-12-29T09:13:47;10.50;99.90
39815;DHT22;25495;45.948;4.568;2022-12-29T09:16:13;10.50;99.90
39815;DHT22;25495;45.948;4.568;2022-12-29T09:18:39;10.50;99.90
39815;DHT22;25495;45.948;4.568;2022-12-29T09:21:05;10.40;99.90
39815;DHT22;25495;45.948;4.568;2022-12-29T09:23:31;10.40;99.90
39815;DHT22;25495;45.948;4.568;2022-12-29T09:25:59;10.30;99.90
39815;DHT22;25495;45.948;4.568;2022-12-29T09:28:29;10.40;99.90
39815;DHT22;25495;45.948;4.568;2022-12-29T09:30:56;10.40;99.90
39815;DHT22;25495;45.948;4.568;2022-12-29T09:33:22;10.60;99.90
39815;DHT22;25495;45.948;4.568;2022-12-29T09:36:06;10.50;99.90
39815;DHT22;25495;45.948;4.568;2022-12-29T09:38:31;10.60;99.90
39815;DHT22;25495;45.948;4.568;2022-12-29T09:41:01;10.50;99.90
39815;DHT22;25495;45.948;4.568;2022-12-29T09:48:41;10.50;99.90
39815;DHT22;25495;45.948;4.568;2022-12-29T09:51:13;10.50;99.90
39815;DHT22;25495;45.948;4.568;2022-12-29T09:53:41;10.40;99.90
39815;DHT22;25495;45.948;4.568;2022-12-29T09:56:17;10.40;99.90
39815;DHT22;25495;45.948;4.568;2022-12-29T09:58:45;10.40;99.90
39815;DHT22;25495;45.948;4.568;2022-12-29T10:03:47;10.40;99.90
39815;DHT22;25495;45.948;4.568;2022-12-29T10:06:15;10.40;99.90
39815;DHT22;25495;45.948;4.568;2022-12-29T10:13:56;10.50;99.90
39815;DHT22;25495;45.948;4.568;2022-12-29T10:16:26;10.40;99.90
39815;DHT22;25495;45.948;4.568;2022-12-29T10:23:58;10.50;99.90
39815;DHT22;25495;45.948;4.568;2022-12-29T10:26:28;10.50;99.90
39815;DHT22;25495;45.948;4.568;2022-12-29T10:29:02;10.50;99.90
39815;DHT22;25495;45.948;4.568;2022-12-29T10:31:38;10.60;99.90
39815;DHT22;25495;45.948;4.568;2022-12-29T10:34:16;10.60;99.90
39815;DHT22;25495;45.948;4.568;2022-12-29T10:36:44;10.60;99.90
39815;DHT22;25495;45.948;4.568;2022-12-29T10:39:14;10.70;99.90
39815;DHT22;25495;45.948;4.568;2022-12-29T10:41:46;10.70;99.90
39815;DHT22;25495;45.948;4.568;2022-12-29T10:44:14;10.80;99.90
39815;DHT22;25495;45.948;4.568;2022-12-29T10:46:41;10.80;99.90
39815;DHT22;25495;45.948;4.568;2022-12-29T10:49:11;10.80;99.90
39815;DHT22;25495;45.948;4.568;2022-12-29T10:51:39;10.80;99.90
39815;DHT22;25495;45.948;4.568;2022-12-29T10:56:51;10.90;99.90
39815;DHT22;25495;45.948;4.568;2022-12-29T10:59:20;10.90;99.90
39815;DHT22;25495;45.948;4.568;2022-12-29T11:01:50;10.90;99.90
39815;DHT22;25495;45.948;4.568;2022-12-29T11:04:35;10.90;99.90
39815;DHT22;25495;45.948;4.568;2022-12-29T11:07:03;11.00;99.90
39815;DHT22;25495;45.948;4.568;2022-12-29T11:09:32;11.00;99.90
39815;DHT22;25495;45.948;4.568;2022-12-29T11:11:59;11.00;99.90
39815;DHT22;25495;45.948;4.568;2022-12-29T11:14:28;11.10;99.90
39815;DHT22;25495;45.948;4.568;2022-12-29T11:16:58;11.10;99.90
39815;DHT22;25495;45.948;4.568;2022-12-29T11:19:28;11.20;99.90
39815;DHT22;25495;45.948;4.568;2022-12-29T11:21:54;11.30;99.90
39815;DHT22;25495;45.948;4.568;2022-12-29T11:24:21;11.20;99.90
39815;DHT22;25495;45.948;4.568;2022-12-29T11:26:48;11.20;99.90
39815;DHT22;25495;45.948;4.568;2022-12-29T11:29:17;11.30;99.90
39815;DHT22;25495;45.948;4.568;2022-12-29T11:31:45;11.30;99.90
39815;DHT22;25495;45.948;4.568;2022-12-29T11:34:45;11.30;99.90
39815;DHT22;25495;45.948;4.568;2022-12-29T11:37:14;11.20;99.90
39815;DHT22;25495;45.948;4.568;2022-12-29T11:42:06;11.20;99.90
39815;DHT22;25495;45.948;4.568;2022-12-29T11:44:37;11.30;99.90
39815;DHT22;25495;45.948;4.568;2022-12-29T11:47:07;11.40;99.90
39815;DHT22;25495;45.948;4.568;2022-12-29T11:49:34;11.40;99.90
39815;DHT22;25495;45.948;4.568;2022-12-29T11:51:59;11.40;99.90
39815;DHT22;25495;45.948;4.568;2022-12-29T11:54:26;11.40;99.90
39815;DHT22;25495;45.948;4.568;2022-12-29T11:56:52;11.40;99.90
39815;DHT22;25495;45.948;4.568;2022-12-29T12:02:00;11.40;99.90
39815;DHT22;25495;45.948;4.568;2022-12-29T12:04:29;11.40;99.90
39815;DHT22;25495;45.948;4.568;2022-12-29T12:07:00;11.40;99.90
39815;DHT22;25495;45.948;4.568;2022-12-29T12:09:37;11.50;99.90
39815;DHT22;25495;45.948;4.568;2022-12-29T12:12:04;11.60;99.90
39815;DHT22;25495;45.948;4.568;2022-12-29T12:17:04;11.80;99.90
39815;DHT22;25495;45.948;4.568;2022-12-29T12:19:32;11.80;99.90
39815;DHT22;25495;45.948;4.568;2022-12-29T12:24:46;11.80;99.90
39815;DHT22;25495;45.948;4.568;2022-12-29T12:29:50;11.90;99.90
39815;DHT22;25495;45.948;4.568;2022-12-29T12:32:59;11.90;99.90
39815;DHT22;25495;45.948;4.568;2022-12-29T12:35:15;12.00;99.90
39815;DHT22;25495;45.948;4.568;2022-12-29T12:42:56;12.00;99.90
39815;DHT22;25495;45.948;4.568;2022-12-29T12:45:45;12.10;99.90
39815;DHT22;25495;45.948;4.568;2022-12-29T12:50:54;12.20;99.90
39815;DHT22;25495;45.948;4.568;2022-12-29T12:53:38;12.10;99.90
39815;DHT22;25495;45.948;4.568;2022-12-29T12:58:53;12.10;99.90
39815;DHT22;25495;45.948;4.568;2022-12-29T13:04:05;12.10;99.90
39815;DHT22;25495;45.948;4.568;2022-12-29T13:20:29;12.20;99.90
39815;DHT22;25495;45.948;4.568;2022-12-29T13:30:48;12.20;99.90
39815;DHT22;25495;45.948;4.568;2022-12-29T13:36:00;12.20;99.90
39815;DHT22;25495;45.948;4.568;2022-12-29T13:38:40;12.10;99.90
39815;DHT22;25495;45.948;4.568;2022-12-29T13:41:09;12.10;99.90
39815;DHT22;25495;45.948;4.568;2022-12-29T13:43:37;12.10;99.90
39815;DHT22;25495;45.948;4.568;2022-12-29T13:46:10;12.20;99.90
39815;DHT22;25495;45.948;4.568;2022-12-29T13:48:43;12.10;99.90
39815;DHT22;25495;45.948;4.568;2022-12-29T13:51:10;12.10;99.90
39815;DHT22;25495;45.948;4.568;2022-12-29T13:53:57;12.00;99.90
39815;DHT22;25495;45.948;4.568;2022-12-29T13:56:37;12.00;99.90
39815;DHT22;25495;45.948;4.568;2022-12-29T14:04:21;11.70;99.90
39815;DHT22;25495;45.948;4.568;2022-12-29T14:06:47;11.60;99.90
39815;DHT22;25495;45.948;4.568;2022-12-29T14:09:38;11.80;99.90
39815;DHT22;25495;45.948;4.568;2022-12-29T14:12:39;11.70;99.90
39815;DHT22;25495;45.948;4.568;2022-12-29T14:15:04;11.60;99.90
39815;DHT22;25495;45.948;4.568;2022-12-29T14:17:32;11.50;99.90
39815;DHT22;25495;45.948;4.568;2022-12-29T14:19:58;11.50;99.90
39815;DHT22;25495;45.948;4.568;2022-12-29T14:22:24;11.50;99.90
39815;DHT22;25495;45.948;4.568;2022-12-29T14:24:50;11.50;99.90
39815;DHT22;25495;45.948;4.568;2022-12-29T14:29:42;11.40;99.90
39815;DHT22;25495;45.948;4.568;2022-12-29T14:34:49;11.30;99.90
39815;DHT22;25495;45.948;4.568;2022-12-29T14:37:25;11.10;99.90
39815;DHT22;25495;45.948;4.568;2022-12-29T14:42:37;10.80;99.90
39815;DHT22;25495;45.948;4.568;2022-12-29T14:45:27;10.60;99.90
39815;DHT22;25495;45.948;4.568;2022-12-29T14:47:51;10.60;99.90
39815;DHT22;25495;45.948;4.568;2022-12-29T14:52:57;10.50;99.90
39815;DHT22;25495;45.948;4.568;2022-12-29T14:58:17;10.20;99.90
39815;DHT22;25495;45.948;4.568;2022-12-29T15:00:43;10.00;99.90
39815;DHT22;25495;45.948;4.568;2022-12-29T15:05:45;9.90;99.90
39815;DHT22;25495;45.948;4.568;2022-12-29T15:08:16;9.70;99.90
39815;DHT22;25495;45.948;4.568;2022-12-29T15:10:51;9.70;99.90
39815;DHT22;25495;45.948;4.568;2022-12-29T15:13:35;9.60;99.90
39815;DHT22;25495;45.948;4.568;2022-12-29T15:16:02;9.50;99.90
39815;DHT22;25495;45.948;4.568;2022-12-29T15:18:28;9.50;99.90
39815;DHT22;25495;45.948;4.568;2022-12-29T15:21:02;9.30;99.90
39815;DHT22;25495;45.948;4.568;2022-12-29T15:23:30;9.30;99.90
39815;DHT22;25495;45.948;4.568;2022-12-29T15:25:57;9.20;99.90
39815;DHT22;25495;45.948;4.568;2022-12-29T15:28:23;9.20;99.90
39815;DHT22;25495;45.948;4.568;2022-12-29T15:30:49;9.10;99.90
39815;DHT22;25495;45.948;4.568;2022-12-29T15:33:19;9.10;99.90
39815;DHT22;25495;45.948;4.568;2022-12-29T15:35:49;9.10;99.90
39815;DHT22;25495;45.948;4.568;2022-12-29T15:38:15;8.90;99.90
39815;DHT22;25495;45.948;4.568;2022-12-29T15:40:43;9.00;99.90
39815;DHT22;25495;45.948;4.568;2022-12-29T15:43:15;8.90;99.90
39815;DHT22;25495;45.948;4.568;2022-12-29T15:45:44;8.90;99.90
39815;DHT22;25495;45.948;4.568;2022-12-29T15:48:19;8.70;99.90
39815;DHT22;25495;45.948;4.568;2022-12-29T15:50:46;8.70;99.90
39815;DHT22;25495;45.948;4.568;2022-12-29T15:53:15;8.70;99.90
39815;DHT22;25495;45.948;4.568;2022-12-29T15:55:41;8.60;99.90
39815;DHT22;25495;45.948;4.568;2022-12-29T15:58:21;8.70;99.90
39815;DHT22;25495;45.948;4.568;2022-12-29T16:00:48;8.70;99.90
39815;DHT22;25495;45.948;4.568;2022-12-29T16:03:14;8.80;99.90
39815;DHT22;25495;45.948;4.568;2022-12-29T16:05:41;8.70;99.90
39815;DHT22;25495;45.948;4.568;2022-12-29T16:08:24;8.60;99.90
39815;DHT22;25495;45.948;4.568;2022-12-29T16:10:52;8.50;99.90
39815;DHT22;25495;45.948;4.568;2022-12-29T16:15:47;8.60;99.90
39815;DHT22;25495;45.948;4.568;2022-12-29T16:18:21;8.50;99.90
39815;DHT22;25495;45.948;4.568;2022-12-29T16:20:48;8.60;99.90
39815;DHT22;25495;45.948;4.568;2022-12-29T16:23:17;8.50;99.90
39815;DHT22;25495;45.948;4.568;2022-12-29T16:25:43;8.50;99.90
39815;DHT22;25495;45.948;4.568;2022-12-29T16:28:16;8.40;99.90
39815;DHT22;25495;45.948;4.568;2022-12-29T16:30:42;8.30;99.90
39815;DHT22;25495;45.948;4.568;2022-12-29T16:35:52;8.10;99.90
39815;DHT22;25495;45.948;4.568;2022-12-29T16:43:27;8.20;99.90
39815;DHT22;25495;45.948;4.568;2022-12-29T16:48:31;8.20;99.90
39815;DHT22;25495;45.948;4.568;2022-12-29T16:51:12;8.20;99.90
39815;DHT22;25495;45.948;4.568;2022-12-29T16:53:39;8.10;99.90
39815;DHT22;25495;45.948;4.568;2022-12-29T16:56:13;8.10;99.90
39815;DHT22;25495;45.948;4.568;2022-12-29T16:58:39;8.20;99.90
39815;DHT22;25495;45.948;4.568;2022-12-29T17:01:05;8.20;99.90
39815;DHT22;25495;45.948;4.568;2022-12-29T17:03:37;8.40;99.90
39815;DHT22;25495;45.948;4.568;2022-12-29T17:06:04;8.40;99.90
39815;DHT22;25495;45.948;4.568;2022-12-29T17:08:38;8.50;99.90
39815;DHT22;25495;45.948;4.568;2022-12-29T17:11:04;8.40;99.90
39815;DHT22;25495;45.948;4.568;2022-12-29T17:13:49;8.50;99.90
39815;DHT22;25495;45.948;4.568;2022-12-29T17:16:14;8.50;99.90
39815;DHT22;25495;45.948;4.568;2022-12-29T17:18:40;8.30;99.90
39815;DHT22;25495;45.948;4.568;2022-12-29T17:21:05;8.30;99.90
39815;DHT22;25495;45.948;4.568;2022-12-29T17:23:33;8.30;99.90
39815;DHT22;25495;45.948;4.568;2022-12-29T17:26:01;8.20;99.90
39815;DHT22;25495;45.948;4.568;2022-12-29T17:28:28;8.20;99.90
39815;DHT22;25495;45.948;4.568;2022-12-29T17:30:58;8.00;99.90
39815;DHT22;25495;45.948;4.568;2022-12-29T17:33:25;8.00;99.90
39815;DHT22;25495;45.948;4.568;2022-12-29T17:35:50;8.00;99.90
39815;DHT22;25495;45.948;4.568;2022-12-29T17:38:17;8.00;99.90
39815;DHT22;25495;45.948;4.568;2022-12-29T17:40:43;7.90;99.90
39815;DHT22;25495;45.948;4.568;2022-12-29T17:43:08;8.00;99.90
39815;DHT22;25495;45.948;4.568;2022-12-29T17:45:37;7.90;99.90
39815;DHT22;25495;45.948;4.568;2022-12-29T17:48:04;7.90;99.90
39815;DHT22;25495;45.948;4.568;2022-12-29T17:50:34;8.00;99.90
39815;DHT22;25495;45.948;4.568;2022-12-29T17:53:01;8.00;99.90
39815;DHT22;25495;45.948;4.568;2022-12-29T17:55:29;8.00;99.90
39815;DHT22;25495;45.948;4.568;2022-12-29T17:57:54;8.00;99.90
39815;DHT22;25495;45.948;4.568;2022-12-29T18:00:21;8.10;99.90
39815;DHT22;25495;45.948;4.568;2022-12-29T18:02:47;8.10;99.90
39815;DHT22;25495;45.948;4.568;2022-12-29T18:07:51;8.10;99.90